Time;durP1;ratioP1;P1;durP2;ratioP2;P2;SDS_P1;SDS_P2;PMS_P1;PMS_P2;Temp;Humidity;BMP_temperature;BMP_pressure;BME280_temperature;BME280_humidity;BME280_pressure;Samples;Min_cycle;Max_cycle;Signal;HPM_P1;HPM_P2
2024/02/06 00:01:27;;;;;;;6.60;4.50;;;;;;;7.89;87.52;98825.80;217066;1256;140405;-75
2024/02/06 00:06:31;;;;;;;9.40;5.90;;;;;;;7.88;87.49;98825.10;216802;1259;140471;-75
2024/02/06 00:11:38;;;;;;;8.10;5.80;;;;;;;7.85;87.21;98831.27;218073;1258;139371;-72
2024/02/06 00:16:42;;;;;;;8.30;3.80;;;;;;;7.86;87.05;98829.74;217348;1260;139626;-70
2024/02/06 00:21:47;;;;;;;10.30;6.10;;;;;;;7.87;87.08;98830.30;217058;1261;140084;-69
2024/02/06 00:26:51;;;;;;;13.20;5.80;;;;;;;7.89;87.07;98832.03;217524;1261;139731;-70
2024/02/06 00:31:55;;;;;;;16.50;6.00;;;;;;;7.91;86.94;98830.85;218027;1257;139915;-70
2024/02/06 00:36:58;;;;;;;7.90;3.80;;;;;;;7.91;86.62;98819.76;216940;1262;140480;-70
2024/02/06 00:42:02;;;;;;;16.00;6.00;;;;;;;7.90;86.58;98828.87;216886;1257;140110;-70
2024/02/06 00:47:08;;;;;;;10.40;5.80;;;;;;;7.87;86.62;98832.73;216887;1261;140160;-71
2024/02/06 00:52:12;;;;;;;15.80;5.40;;;;;;;7.86;86.35;98845.70;217060;1257;140680;-70
2024/02/06 00:57:16;;;;;;;13.40;4.70;;;;;;;7.84;86.56;98854.86;218079;1257;139341;-74
2024/02/06 01:02:22;;;;;;;9.00;4.80;;;;;;;7.79;86.35;98851.89;218696;1261;140468;-72
2024/02/06 01:07:27;;;;;;;7.00;3.80;;;;;;;7.74;86.61;98844.33;218875;1257;139380;-73
2024/02/06 01:12:31;;;;;;;6.30;4.40;;;;;;;7.73;86.34;98843.24;219915;1257;140614;-74
2024/02/06 01:17:35;;;;;;;6.90;3.40;;;;;;;7.74;86.25;98850.00;219157;1257;140576;-73
2024/02/06 01:22:39;;;;;;;4.20;3.70;;;;;;;7.76;86.45;98853.83;217760;1259;139501;-72
2024/02/06 01:27:43;;;;;;;5.80;2.60;;;;;;;7.77;86.34;98847.56;218031;1257;219797;-71
2024/02/06 01:32:47;;;;;;;5.10;3.10;;;;;;;7.76;86.37;98847.54;217055;1257;139458;-72
2024/02/06 01:37:51;;;;;;;7.20;4.10;;;;;;;7.74;86.39;98853.88;217580;1257;139435;-71
2024/02/06 01:42:55;;;;;;;9.00;4.70;;;;;;;7.69;86.42;98859.40;218195;1261;140431;-71
2024/02/06 01:48:00;;;;;;;6.70;3.50;;;;;;;7.65;86.69;98855.77;216836;1262;139721;-72
2024/02/06 01:53:06;;;;;;;13.70;6.40;;;;;;;7.58;86.85;98858.52;217089;1257;139403;-71
2024/02/06 01:58:10;;;;;;;6.90;3.20;;;;;;;7.51;87.44;98861.67;217273;1257;139744;-72
2024/02/06 02:03:15;;;;;;;6.10;4.00;;;;;;;7.45;87.56;98856.55;217246;1257;139403;-72
2024/02/06 02:08:20;;;;;;;6.80;4.50;;;;;;;7.35;88.20;98841.48;218247;1257;140359;-72
2024/02/06 02:13:26;;;;;;;6.90;4.60;;;;;;;7.25;88.47;98850.23;217121;1262;139765;-71
2024/02/06 02:18:35;;;;;;;12.30;4.60;;;;;;;7.15;88.86;98855.02;217001;1257;139599;-72
2024/02/06 02:23:45;;;;;;;11.50;4.50;;;;;;;7.06;89.46;98859.60;218233;1257;139787;-71
2024/02/06 02:28:49;;;;;;;9.00;4.80;;;;;;;6.98;90.17;98852.88;216767;1257;139550;-71
2024/02/06 02:33:54;;;;;;;6.50;4.70;;;;;;;6.94;90.73;98849.11;217123;1261;139378;-71
2024/02/06 02:38:59;;;;;;;5.90;5.10;;;;;;;6.90;90.84;98850.25;217673;1261;139847;-71
2024/02/06 02:44:06;;;;;;;8.30;5.50;;;;;;;6.84;91.41;98855.36;217302;1259;139911;-72
2024/02/06 02:49:12;;;;;;;14.10;7.10;;;;;;;6.80;91.76;98847.27;219757;1257;139724;-72
2024/02/06 02:54:17;;;;;;;14.40;8.20;;;;;;;6.79;92.25;98847.25;219449;1257;140575;-72
2024/02/06 02:59:23;;;;;;;20.60;12.90;;;;;;;6.79;92.35;98842.73;218872;1256;140030;-73
2024/02/06 03:04:31;;;;;;;17.30;10.10;;;;;;;6.77;92.65;98833.27;219921;1257;141738;-75
2024/02/06 03:09:36;;;;;;;18.90;11.60;;;;;;;6.79;92.60;98835.11;219479;1257;140263;-72
2024/02/06 03:14:40;;;;;;;10.60;8.30;;;;;;;6.77;92.86;98833.89;218440;1256;140812;-68
2024/02/06 03:19:45;;;;;;;18.50;11.20;;;;;;;6.73;93.03;98830.01;218054;1257;139889;-76
2024/02/06 03:24:50;;;;;;;23.50;11.20;;;;;;;6.72;93.38;98828.68;218874;1262;139984;-69
2024/02/06 03:29:57;;;;;;;18.90;11.00;;;;;;;6.72;93.46;98833.71;217774;1260;140407;-72
2024/02/06 03:35:02;;;;;;;24.10;10.70;;;;;;;6.71;93.64;98831.62;217179;1262;139552;-70
2024/02/06 03:40:08;;;;;;;19.60;10.40;;;;;;;6.68;93.72;98823.19;216959;1261;142516;-70
2024/02/06 03:45:14;;;;;;;16.90;10.30;;;;;;;6.66;94.12;98819.16;217460;1259;139805;-73
2024/02/06 03:50:19;;;;;;;15.30;9.10;;;;;;;6.61;94.47;98808.36;217847;1262;139961;-70
2024/02/06 03:55:24;;;;;;;12.70;9.10;;;;;;;6.59;94.56;98801.96;216562;1259;139847;-70
2024/02/06 04:00:28;;;;;;;19.50;12.30;;;;;;;6.58;94.69;98804.99;217637;1259;139536;-71
2024/02/06 04:05:33;;;;;;;16.10;8.80;;;;;;;6.58;94.61;98798.59;216667;1262;141250;-70
2024/02/06 04:10:39;;;;;;;15.50;8.60;;;;;;;6.56;94.70;98801.31;216594;1262;139378;-72
2024/02/06 04:15:44;;;;;;;29.80;9.60;;;;;;;6.55;95.04;98792.49;216263;1262;140414;-70
2024/02/06 04:20:48;;;;;;;12.80;8.70;;;;;;;6.53;94.70;98793.80;217404;1262;140361;-71
2024/02/06 04:25:53;;;;;;;15.70;8.70;;;;;;;6.52;94.59;98794.67;217397;1258;140224;-71
2024/02/06 04:30:58;;;;;;;13.10;7.70;;;;;;;6.51;94.18;98791.80;219000;1256;141534;-76
2024/02/06 04:36:04;;;;;;;18.80;9.60;;;;;;;6.51;94.64;98789.20;219434;1257;141111;-76
2024/02/06 04:41:12;;;;;;;15.00;7.50;;;;;;;6.51;94.54;98779.77;217707;1260;322081;-77
2024/02/06 04:46:16;;;;;;;11.80;6.10;;;;;;;6.54;94.17;98775.94;218358;1260;139827;-75
2024/02/06 04:51:20;;;;;;;15.50;7.70;;;;;;;6.56;94.37;98776.30;217744;1260;140381;-74
2024/02/06 04:56:25;;;;;;;8.60;5.80;;;;;;;6.58;94.29;98765.23;217782;1260;139893;-73
2024/02/06 05:01:31;;;;;;;10.60;7.30;;;;;;;6.59;94.30;98767.69;219863;1257;139759;-73
2024/02/06 05:06:41;;;;;;;10.10;6.00;;;;;;;6.61;94.14;98765.09;219462;1257;139831;-73
2024/02/06 05:11:45;;;;;;;14.60;6.70;;;;;;;6.66;93.73;98762.60;217100;1257;140012;-72
2024/02/06 05:16:53;;;;;;;14.30;6.30;;;;;;;6.69;93.39;98762.14;217739;1260;141736;-72
2024/02/06 05:21:59;;;;;;;13.10;6.70;;;;;;;6.70;93.47;98760.90;218036;1257;141631;-73
2024/02/06 05:27:04;;;;;;;14.30;5.80;;;;;;;6.73;93.24;98767.39;217930;1257;139179;-72
2024/02/06 05:32:09;;;;;;;10.70;5.30;;;;;;;6.75;92.82;98758.90;218368;1258;140528;-70
2024/02/06 05:37:13;;;;;;;9.60;5.40;;;;;;;6.77;92.79;98767.63;219823;1256;140237;-72
2024/02/06 05:42:18;;;;;;;10.30;5.40;;;;;;;6.81;92.54;98761.36;217950;1257;139739;-73
2024/02/06 05:47:22;;;;;;;9.00;4.70;;;;;;;6.84;92.17;98758.29;218366;1260;139955;-71
2024/02/06 05:52:27;;;;;;;11.80;4.50;;;;;;;6.86;92.11;98749.49;216997;1260;140272;-70
2024/02/06 05:57:32;;;;;;;8.50;5.00;;;;;;;6.89;91.81;98749.88;217632;1260;141536;-70
2024/02/06 06:02:37;;;;;;;5.00;4.30;;;;;;;6.90;91.55;98744.23;217505;1257;139540;-71
2024/02/06 06:07:41;;;;;;;9.60;4.50;;;;;;;6.91;91.49;98749.06;217443;1260;139763;-71
2024/02/06 06:12:46;;;;;;;7.90;4.40;;;;;;;6.91;91.31;98748.13;216986;1258;140330;-73
2024/02/06 06:17:51;;;;;;;5.60;3.90;;;;;;;6.92;91.05;98761.48;217202;1260;141230;-71
2024/02/06 06:22:55;;;;;;;8.80;4.40;;;;;;;6.92;90.66;98762.66;217478;1257;140447;-69
2024/02/06 06:27:59;;;;;;;7.30;4.70;;;;;;;6.92;91.11;98770.33;217227;1260;139414;-70
2024/02/06 06:33:04;;;;;;;5.40;5.00;;;;;;;6.90;91.19;98770.73;216893;1257;139617;-70
2024/02/06 06:38:08;;;;;;;7.60;4.40;;;;;;;6.88;90.94;98767.49;217047;1258;140164;-70
2024/02/06 06:43:12;;;;;;;5.60;3.80;;;;;;;6.87;90.96;98768.86;218733;1257;139122;-72
2024/02/06 06:48:16;;;;;;;6.20;3.90;;;;;;;6.89;90.58;98773.19;220014;1258;140151;-71
2024/02/06 06:53:19;;;;;;;6.60;4.30;;;;;;;6.90;91.03;98779.14;219337;1257;139889;-71
2024/02/06 06:58:23;;;;;;;12.00;5.40;;;;;;;6.91;90.73;98779.06;219818;1257;140210;-71
2024/02/06 07:03:26;;;;;;;8.60;3.30;;;;;;;6.92;90.22;98784.17;220031;1256;139874;-73
2024/02/06 07:08:30;;;;;;;6.40;3.90;;;;;;;6.93;90.21;98791.92;217938;1257;139254;-73
2024/02/06 07:13:34;;;;;;;6.50;3.00;;;;;;;6.92;90.39;98784.84;217291;1256;139521;-70
2024/02/06 07:18:38;;;;;;;12.80;4.20;;;;;;;6.90;90.66;98784.18;217112;1260;140111;-70
2024/02/06 07:23:43;;;;;;;10.20;3.70;;;;;;;6.89;90.47;98773.44;217066;1257;140464;-68
2024/02/06 07:28:47;;;;;;;7.50;4.20;;;;;;;6.90;90.73;98772.57;218415;1260;141550;-72
2024/02/06 07:33:51;;;;;;;4.20;3.80;;;;;;;6.93;90.41;98774.86;216738;1260;140681;-70
2024/02/06 07:38:56;;;;;;;10.50;4.50;;;;;;;6.97;90.39;98778.13;216848;1260;139910;-70
2024/02/06 07:43:59;;;;;;;24.60;8.70;;;;;;;7.01;90.55;98787.11;216897;1257;139479;-74
2024/02/06 07:49:04;;;;;;;5.20;4.80;;;;;;;7.01;90.22;98783.30;217500;1260;140146;-71
2024/02/06 07:54:08;;;;;;;4.70;3.40;;;;;;;7.01;90.17;98790.19;216865;1257;140490;-72
2024/02/06 07:59:14;;;;;;;8.60;3.90;;;;;;;7.03;90.13;98791.69;217112;1257;139630;-73
2024/02/06 08:04:18;;;;;;;8.50;3.50;;;;;;;7.05;89.91;98790.99;216991;1258;140355;-70
2024/02/06 08:09:23;;;;;;;5.50;3.50;;;;;;;7.06;89.90;98777.27;217852;1260;140062;-72
2024/02/06 08:14:35;;;;;;;4.50;4.10;;;;;;;7.08;90.06;98783.73;217614;1256;139982;-73
2024/02/06 08:19:39;;;;;;;5.40;4.00;;;;;;;7.09;89.85;98782.02;217931;1260;140011;-72
2024/02/06 08:24:44;;;;;;;5.80;4.10;;;;;;;7.11;89.72;98784.96;216936;1257;139219;-72
2024/02/06 08:29:48;;;;;;;5.20;3.20;;;;;;;7.12;89.86;98793.14;217292;1256;140499;-74
2024/02/06 08:34:51;;;;;;;4.10;2.60;;;;;;;7.12;89.93;98783.60;216806;1257;140135;-72
2024/02/06 08:39:57;;;;;;;8.70;3.90;;;;;;;7.16;89.92;98781.29;217337;1256;140089;-71
2024/02/06 08:45:02;;;;;;;8.90;3.70;;;;;;;7.17;90.09;98782.41;216722;1260;139735;-71
2024/02/06 08:50:07;;;;;;;7.00;3.20;;;;;;;7.15;90.03;98781.05;217487;1257;139841;-71
2024/02/06 08:55:11;;;;;;;5.90;3.60;;;;;;;7.16;90.18;98774.98;216885;1257;140024;-72
2024/02/06 09:00:17;;;;;;;11.30;3.60;;;;;;;7.16;89.92;98768.98;217060;1257;139511;-73
2024/02/06 09:05:21;;;;;;;6.00;3.00;;;;;;;7.17;89.79;98770.83;220132;1257;140069;-73
2024/02/06 09:10:26;;;;;;;5.20;3.30;;;;;;;7.21;89.65;98770.58;218395;1259;139904;-71
2024/02/06 09:15:31;;;;;;;6.10;3.80;;;;;;;7.26;89.43;98771.21;217344;1257;140207;-72
2024/02/06 09:21:19;;;;;;;5.40;3.00;;;;;;;7.30;89.24;98761.54;217672;1259;140412;-71
2024/02/06 09:26:24;;;;;;;9.20;4.40;;;;;;;7.36;89.38;98763.48;217563;1256;141233;-70
2024/02/06 09:31:29;;;;;;;6.60;4.30;;;;;;;7.38;89.07;98769.40;217173;1257;139447;-71
2024/02/06 09:36:33;;;;;;;4.00;3.20;;;;;;;7.39;88.79;98763.60;217221;1257;141814;-71
2024/02/06 09:41:39;;;;;;;8.20;2.70;;;;;;;7.45;88.99;98756.44;217989;1259;140405;-70
2024/02/06 09:46:50;;;;;;;5.20;2.70;;;;;;;7.53;88.79;98762.47;217250;1256;140849;-70
2024/02/06 09:51:55;;;;;;;5.60;3.10;;;;;;;7.59;88.72;98756.33;218568;1257;139345;-70
2024/02/06 09:57:00;;;;;;;6.80;3.20;;;;;;;7.64;88.62;98765.21;217791;1256;139820;-70
2024/02/06 10:02:04;;;;;;;3.00;2.70;;;;;;;7.67;88.81;98767.52;217954;1257;139618;-71
2024/02/06 10:07:11;;;;;;;5.20;3.10;;;;;;;7.68;88.75;98764.79;218066;1256;140085;-72
2024/02/06 10:12:17;;;;;;;4.20;3.00;;;;;;;7.66;88.39;98769.11;217415;1257;139621;-72
2024/02/06 10:17:21;;;;;;;5.80;3.30;;;;;;;7.62;88.12;98766.82;217793;1257;139821;-75
2024/02/06 10:22:29;;;;;;;9.30;3.70;;;;;;;7.62;88.52;98764.86;217528;1256;140631;-77
2024/02/06 10:27:34;;;;;;;2.70;1.70;;;;;;;7.66;88.30;98761.52;218098;1257;139363;-71
2024/02/06 10:32:39;;;;;;;3.60;2.00;;;;;;;7.67;88.38;98757.83;217924;1257;139389;-71
2024/02/06 10:37:43;;;;;;;6.10;2.70;;;;;;;7.69;88.42;98751.75;217845;1256;140078;-69
2024/02/06 10:42:48;;;;;;;3.80;2.10;;;;;;;7.71;88.51;98755.25;219047;1259;139880;-68
2024/02/06 10:48:17;;;;;;;2.60;2.20;;;;;;;7.71;88.06;98756.04;218387;1256;141082;-69
2024/02/06 10:53:22;;;;;;;4.50;2.70;;;;;;;7.66;88.39;98750.17;217534;1256;139652;-71
2024/02/06 10:58:40;;;;;;;3.60;2.20;;;;;;;7.61;88.28;98747.35;217239;1260;139488;-70
2024/02/06 11:03:53;;;;;;;5.30;2.10;;;;;;;7.61;88.48;98740.50;218811;1256;140957;-72
2024/02/06 11:09:03;;;;;;;4.30;2.50;;;;;;;7.61;88.62;98729.57;217364;1257;139756;-69
2024/02/06 11:14:11;;;;;;;2.60;1.90;;;;;;;7.60;88.56;98732.69;217306;1259;140370;-71
2024/02/06 11:19:30;;;;;;;3.90;2.50;;;;;;;7.60;88.23;98728.48;218532;1256;139437;-72
2024/02/06 11:24:35;;;;;;;3.10;2.20;;;;;;;7.61;88.45;98726.83;217174;1256;139445;-70
2024/02/06 11:29:40;;;;;;;3.90;2.60;;;;;;;7.67;88.36;98723.81;217082;1257;139442;-70
2024/02/06 11:34:52;;;;;;;3.50;2.20;;;;;;;7.71;88.32;98707.45;217489;1259;141270;-69
2024/02/06 11:40:08;;;;;;;4.00;2.30;;;;;;;7.78;88.20;98710.31;217199;1259;139962;-72
2024/02/06 11:45:19;;;;;;;3.40;2.20;;;;;;;7.86;87.98;98714.75;217674;1257;139660;-70
2024/02/06 11:50:42;;;;;;;3.20;2.20;;;;;;;7.95;88.06;98706.60;217228;1257;140331;-68
2024/02/06 11:55:47;;;;;;;3.90;2.70;;;;;;;8.02;87.84;98703.45;217096;1257;140163;-71
2024/02/06 12:00:52;;;;;;;5.40;1.70;;;;;;;8.02;87.62;98705.80;217287;1256;141219;-69
2024/02/06 12:05:56;;;;;;;4.10;2.10;;;;;;;8.06;87.31;98705.06;217313;1256;139690;-69
2024/02/06 12:11:04;;;;;;;3.30;2.20;;;;;;;8.10;87.20;98705.28;216888;1260;140506;-70
2024/02/06 12:16:08;;;;;;;5.80;2.30;;;;;;;8.08;87.22;98701.52;217383;1257;234293;-71
2024/02/06 12:21:23;;;;;;;3.40;1.90;;;;;;;8.02;86.91;98701.88;218028;1256;139247;-69
2024/02/06 12:26:27;;;;;;;3.60;2.00;;;;;;;7.97;87.30;98700.48;218040;1256;139860;-68
2024/02/06 12:31:41;;;;;;;4.80;2.20;;;;;;;7.92;87.17;98682.41;217726;1260;139999;-69
2024/02/06 12:36:46;;;;;;;2.30;2.10;;;;;;;7.87;87.25;98676.44;218375;1256;139445;-67
2024/02/06 12:42:06;;;;;;;2.90;1.70;;;;;;;7.86;87.24;98667.68;217561;1260;140087;-69
2024/02/06 12:47:11;;;;;;;3.80;2.10;;;;;;;7.88;87.45;98656.55;217487;1257;140954;-70
2024/02/06 12:52:18;;;;;;;3.60;2.00;;;;;;;7.87;87.20;98650.60;217889;1256;140290;-69
2024/02/06 12:57:23;;;;;;;2.40;1.70;;;;;;;7.87;87.12;98647.01;217374;1257;139614;-70
2024/02/06 13:02:27;;;;;;;3.90;1.70;;;;;;;7.91;87.01;98649.71;218653;1256;139203;-71
2024/02/06 13:07:32;;;;;;;4.60;2.30;;;;;;;7.95;87.18;98641.11;218221;1256;140530;-71
2024/02/06 13:12:37;;;;;;;3.30;2.20;;;;;;;7.91;86.64;98655.02;217331;1256;139294;-70
2024/02/06 13:17:42;;;;;;;5.90;2.10;;;;;;;7.89;86.52;98647.04;217520;1257;142266;-69
2024/02/06 13:22:48;;;;;;;3.50;2.00;;;;;;;7.89;86.59;98643.73;217914;1256;139700;-71
2024/02/06 13:27:53;;;;;;;2.80;1.80;;;;;;;7.93;86.58;98637.80;217264;1257;140281;-69
2024/02/06 13:32:57;;;;;;;3.70;2.00;;;;;;;8.00;86.55;98629.22;217561;1260;139433;-71
2024/02/06 13:38:03;;;;;;;2.60;1.60;;;;;;;8.03;86.32;98628.90;217156;1257;139398;-68
2024/02/06 13:43:08;;;;;;;3.00;1.70;;;;;;;8.03;86.33;98629.85;217023;1259;139940;-68
2024/02/06 13:48:13;;;;;;;1.80;1.60;;;;;;;8.03;85.95;98633.88;216941;1257;140446;-70
2024/02/06 13:53:17;;;;;;;1.70;1.60;;;;;;;8.01;85.92;98627.39;217247;1257;139570;-70
2024/02/06 13:58:21;;;;;;;4.00;2.10;;;;;;;8.02;85.92;98618.31;218665;1256;139502;-76
2024/02/06 14:03:27;;;;;;;2.70;2.20;;;;;;;8.02;85.63;98618.64;217550;1260;139439;-70
2024/02/06 14:08:32;;;;;;;3.00;1.60;;;;;;;8.02;85.47;98609.14;217650;1257;139299;-70
2024/02/06 14:13:38;;;;;;;3.50;2.50;;;;;;;8.03;85.42;98600.39;218237;1256;139685;-71
2024/02/06 14:18:42;;;;;;;3.20;2.30;;;;;;;8.04;85.45;98597.43;217313;1257;140986;-69
2024/02/06 14:23:49;;;;;;;3.30;1.30;;;;;;;8.05;84.95;98595.33;217465;1256;139169;-72
2024/02/06 14:28:54;;;;;;;6.20;2.80;;;;;;;8.07;84.98;98597.38;217838;1259;139549;-69
2024/02/06 14:33:59;;;;;;;5.60;1.60;;;;;;;8.11;84.67;98584.79;219090;1257;139400;-70
2024/02/06 14:39:04;;;;;;;3.80;1.90;;;;;;;8.16;84.72;98585.86;217285;1259;141945;-72
2024/02/06 14:44:08;;;;;;;2.10;1.90;;;;;;;8.18;84.51;98579.36;218291;1256;139234;-69
2024/02/06 14:49:12;;;;;;;6.80;2.90;;;;;;;8.21;84.30;98579.77;217153;1257;139809;-69
2024/02/06 14:54:16;;;;;;;3.30;2.30;;;;;;;8.23;84.05;98577.20;216932;1259;140174;-68
2024/02/06 14:59:20;;;;;;;6.50;4.30;;;;;;;8.23;83.98;98568.17;217738;1259;141179;-69
2024/02/06 15:04:23;;;;;;;4.70;2.20;;;;;;;8.22;83.98;98560.04;217219;1257;139633;-67
2024/02/06 15:09:27;;;;;;;3.40;1.90;;;;;;;8.24;83.92;98555.49;217120;1257;139535;-68
2024/02/06 15:14:31;;;;;;;5.20;2.90;;;;;;;8.24;83.68;98546.05;217301;1257;141546;-69
2024/02/06 15:19:35;;;;;;;3.10;1.90;;;;;;;8.24;83.67;98532.61;217531;1259;140867;-70
2024/02/06 15:24:39;;;;;;;6.30;1.70;;;;;;;8.23;83.43;98524.15;217387;1257;139428;-70
2024/02/06 15:29:44;;;;;;;2.10;2.00;;;;;;;8.20;83.42;98515.84;217227;1257;139743;-70
2024/02/06 15:34:49;;;;;;;1.70;1.50;;;;;;;8.20;83.38;98514.02;217985;1259;139325;-70
2024/02/06 15:39:53;;;;;;;1.20;1.10;;;;;;;8.20;83.23;98513.50;217084;1257;139669;-72
2024/02/06 15:44:59;;;;;;;3.00;2.20;;;;;;;8.20;83.20;98512.48;217242;1256;141471;-72
2024/02/06 15:50:04;;;;;;;3.40;1.90;;;;;;;8.21;83.06;98513.73;217193;1257;139598;-72
2024/02/06 15:55:11;;;;;;;4.30;1.40;;;;;;;8.20;83.11;98509.25;217850;1256;139388;-69
2024/02/06 16:00:15;;;;;;;5.70;3.10;;;;;;;8.18;83.05;98500.80;217265;1257;140165;-73
2024/02/06 16:05:19;;;;;;;6.30;2.10;;;;;;;8.16;83.25;98504.70;217420;1257;139277;-75
2024/02/06 16:10:24;;;;;;;3.70;1.80;;;;;;;8.16;82.83;98504.74;217319;1256;139035;-71
2024/02/06 16:15:29;;;;;;;3.50;1.70;;;;;;;8.16;83.09;98498.54;218580;1257;139920;-72
2024/02/06 16:20:33;;;;;;;2.40;1.60;;;;;;;8.17;82.85;98493.61;217470;1257;139140;-71
2024/02/06 16:25:38;;;;;;;1.50;1.00;;;;;;;8.19;82.83;98492.04;218397;1259;139968;-71
2024/02/06 16:30:43;;;;;;;2.00;1.00;;;;;;;8.18;82.82;98490.97;217434;1259;140140;-74
2024/02/06 16:35:48;;;;;;;4.40;1.70;;;;;;;8.18;82.94;98487.15;217660;1257;140097;-71
2024/02/06 16:40:53;;;;;;;4.40;1.40;;;;;;;8.19;82.68;98489.34;217585;1256;390818;-71
2024/02/06 16:45:57;;;;;;;4.00;2.30;;;;;;;8.20;82.65;98489.23;217296;1257;139143;-70
2024/02/06 16:51:01;;;;;;;3.30;1.70;;;;;;;8.20;82.58;98480.21;217758;1259;139274;-69
2024/02/06 16:56:05;;;;;;;1.90;1.60;;;;;;;8.21;82.51;98474.75;217700;1257;140029;-75
2024/02/06 17:01:10;;;;;;;2.40;1.70;;;;;;;8.23;82.31;98474.40;217747;1259;139240;-77
2024/02/06 17:06:16;;;;;;;;;;;;;;;8.23;82.21;98469.37;217376;1257;139646;-73
2024/02/06 17:11:21;;;;;;;1.80;1.70;;;;;;;8.23;82.18;98463.63;217850;1256;126815;-76
2024/02/06 17:16:25;;;;;;;3.20;1.70;;;;;;;8.25;82.13;98461.04;216966;1257;139559;-71
2024/02/06 17:21:28;;;;;;;6.60;3.30;;;;;;;8.25;81.95;98454.84;217432;1257;139469;-73
2024/02/06 17:26:32;;;;;;;3.50;1.40;;;;;;;8.25;82.06;98455.94;217316;1259;140699;-72
2024/02/06 17:31:36;;;;;;;4.60;2.00;;;;;;;8.28;81.75;98449.52;217381;1257;139238;-73
2024/02/06 17:36:40;;;;;;;1.60;1.50;;;;;;;8.28;81.76;98445.88;217637;1257;140200;-72
2024/02/06 17:41:45;;;;;;;3.00;2.20;;;;;;;8.29;81.79;98437.11;217336;1259;139528;-74
2024/02/06 17:46:49;;;;;;;4.00;1.60;;;;;;;8.29;81.52;98426.39;217190;1259;139279;-72
2024/02/06 17:51:52;;;;;;;3.00;1.60;;;;;;;8.29;81.44;98422.63;217284;1259;140176;-73
2024/02/06 17:57:00;;;;;;;2.20;1.50;;;;;;;8.31;81.43;98418.67;217094;1257;139278;-73
2024/02/06 18:02:05;;;;;;;3.70;1.40;;;;;;;8.33;81.28;98413.04;217414;1257;140160;-76
2024/02/06 18:07:09;;;;;;;4.30;2.30;;;;;;;8.34;81.44;98398.96;217676;1257;140303;-74
2024/02/06 18:12:15;;;;;;;2.60;2.30;;;;;;;8.33;81.33;98398.52;217191;1259;139553;-72
2024/02/06 18:17:19;;;;;;;9.30;3.50;;;;;;;8.28;81.01;98396.06;217239;1259;140646;-70
2024/02/06 18:22:22;;;;;;;8.70;2.90;;;;;;;8.22;80.72;98400.23;217956;1257;140601;-72
2024/02/06 18:27:26;;;;;;;3.30;2.30;;;;;;;8.17;81.10;98399.80;218266;1257;139768;-72
2024/02/06 18:32:31;;;;;;;4.20;2.60;;;;;;;8.13;81.00;98395.10;217261;1259;140416;-74
2024/02/06 18:37:35;;;;;;;4.80;2.90;;;;;;;8.11;81.03;98387.54;217274;1259;139650;-72
2024/02/06 18:42:39;;;;;;;5.30;3.30;;;;;;;8.10;81.02;98376.33;217350;1257;139365;-75
2024/02/06 18:47:43;;;;;;;4.10;2.80;;;;;;;8.08;81.07;98368.14;217624;1257;139894;-72
2024/02/06 18:52:49;;;;;;;4.70;4.10;;;;;;;8.04;81.09;98365.55;218583;1257;139524;-71
2024/02/06 18:57:53;;;;;;;9.30;3.00;;;;;;;8.02;81.09;98360.11;217564;1259;140576;-70
2024/02/06 19:02:56;;;;;;;5.30;3.50;;;;;;;7.99;80.98;98355.67;217979;1256;139656;-71
2024/02/06 19:08:00;;;;;;;12.20;4.20;;;;;;;7.97;81.11;98346.15;217109;1257;141702;-68
2024/02/06 19:13:04;;;;;;;5.50;3.40;;;;;;;7.95;81.13;98339.79;217213;1261;140538;-69
2024/02/06 19:18:10;;;;;;;6.40;3.10;;;;;;;7.94;80.96;98333.30;217425;1257;139697;-70
2024/02/06 19:23:15;;;;;;;11.30;5.00;;;;;;;7.94;81.15;98337.81;217774;1255;139799;-69
2024/02/06 19:28:20;;;;;;;5.30;2.90;;;;;;;7.92;81.04;98335.30;217176;1259;139737;-70
2024/02/06 19:33:25;;;;;;;4.20;2.80;;;;;;;7.91;81.04;98326.27;218079;1259;141571;-71
2024/02/06 19:38:30;;;;;;;9.80;3.30;;;;;;;7.91;81.03;98324.57;217208;1260;139612;-70
2024/02/06 19:43:34;;;;;;;4.20;2.40;;;;;;;7.89;81.24;98322.44;218959;1256;139915;-75
2024/02/06 19:48:38;;;;;;;5.50;2.90;;;;;;;7.90;81.30;98323.34;217635;1257;139997;-71
2024/02/06 19:53:46;;;;;;;6.80;3.20;;;;;;;7.90;81.32;98319.04;218014;1257;139299;-75
2024/02/06 19:58:51;;;;;;;6.10;3.00;;;;;;;7.90;81.13;98320.16;218468;1259;139889;-75
2024/02/06 20:03:57;;;;;;;3.10;2.50;;;;;;;7.91;80.80;98308.87;217205;1259;139407;-70
2024/02/06 20:09:02;;;;;;;5.10;2.80;;;;;;;7.91;81.31;98303.88;217771;1257;140218;-70
2024/02/06 20:14:13;;;;;;;6.60;3.70;;;;;;;7.93;81.01;98303.52;217925;1257;141052;-77
2024/02/06 20:19:21;;;;;;;3.30;2.90;;;;;;;7.94;81.04;98294.73;217372;1257;139386;-77
2024/02/06 20:24:26;;;;;;;3.10;2.60;;;;;;;7.93;81.07;98297.69;217447;1257;139363;-73
2024/02/06 20:29:29;;;;;;;4.20;2.70;;;;;;;7.94;81.10;98290.11;219667;1257;139730;-75
2024/02/06 20:34:34;;;;;;;6.10;3.70;;;;;;;7.97;80.88;98278.59;217697;1256;139204;-76
2024/02/06 20:39:38;;;;;;;3.80;3.10;;;;;;;7.98;80.96;98271.39;219324;1259;140102;-73
2024/02/06 20:44:43;;;;;;;4.70;3.00;;;;;;;8.00;80.78;98274.75;217583;1260;140789;-73
2024/02/06 20:49:48;;;;;;;5.60;2.70;;;;;;;8.00;80.78;98269.86;218963;1257;139803;-73
2024/02/06 20:54:52;;;;;;;5.90;3.00;;;;;;;8.01;80.58;98262.02;218252;1257;140493;-75
2024/02/06 20:59:57;;;;;;;3.00;2.70;;;;;;;8.02;80.61;98258.00;218579;1260;139261;-72
2024/02/06 21:05:01;;;;;;;6.10;2.80;;;;;;;8.04;80.63;98246.80;217609;1259;139602;-72
2024/02/06 21:10:07;;;;;;;3.80;3.50;;;;;;;8.04;80.71;98236.27;218164;1259;142491;-73
2024/02/06 21:15:11;;;;;;;4.90;2.30;;;;;;;8.07;80.58;98230.59;217539;1259;139172;-71
2024/02/06 21:20:15;;;;;;;3.00;2.30;;;;;;;8.08;80.91;98223.81;217508;1259;139661;-72
2024/02/06 21:25:18;;;;;;;4.90;2.80;;;;;;;8.07;81.05;98213.40;217903;1259;142887;-71
2024/02/06 21:30:23;;;;;;;3.30;2.90;;;;;;;8.03;80.94;98210.24;217212;1259;140501;-70
2024/02/06 21:35:27;;;;;;;4.80;2.80;;;;;;;7.99;81.08;98204.38;217414;1259;140201;-72
2024/02/06 21:40:33;;;;;;;3.60;2.20;;;;;;;7.94;81.02;98198.41;217707;1257;140599;-71
2024/02/06 21:45:37;;;;;;;3.30;3.00;;;;;;;7.88;81.35;98199.84;217418;1259;141722;-70
2024/02/06 21:50:42;;;;;;;3.70;2.50;;;;;;;7.82;81.71;98187.70;218000;1259;140637;-73
2024/02/06 21:55:47;;;;;;;4.60;2.70;;;;;;;7.76;82.04;98185.91;217446;1257;139947;-73
2024/02/06 22:00:51;;;;;;;8.30;3.60;;;;;;;7.67;82.21;98189.02;218380;1257;139734;-70
2024/02/06 22:05:55;;;;;;;6.90;3.70;;;;;;;7.58;82.63;98187.00;217687;1259;140277;-73
2024/02/06 22:11:00;;;;;;;6.60;4.40;;;;;;;7.52;83.14;98174.96;218683;1259;140065;-73
2024/02/06 22:16:05;;;;;;;5.10;2.90;;;;;;;7.45;83.42;98167.67;217473;1259;139964;-72
2024/02/06 22:21:09;;;;;;;5.40;2.80;;;;;;;7.42;83.66;98160.86;218843;1259;141678;-72
2024/02/06 22:26:15;;;;;;;2.70;2.30;;;;;;;7.42;83.68;98162.35;218101;1259;139802;-71
2024/02/06 22:31:19;;;;;;;3.80;2.40;;;;;;;7.42;83.60;98153.45;217857;1257;139605;-70
2024/02/06 22:36:23;;;;;;;4.90;2.90;;;;;;;7.46;83.71;98146.96;217740;1257;139185;-72
2024/02/06 22:41:27;;;;;;;3.50;2.70;;;;;;;7.51;83.54;98143.81;217463;1259;139945;-73
2024/02/06 22:46:33;;;;;;;5.30;2.70;;;;;;;7.56;83.53;98137.71;217526;1257;142189;-73
2024/02/06 22:51:37;;;;;;;3.90;2.10;;;;;;;7.60;83.59;98132.23;217955;1260;139022;-73
2024/02/06 22:56:42;;;;;;;4.90;3.40;;;;;;;7.65;83.61;98134.05;217222;1259;140064;-73
2024/02/06 23:01:46;;;;;;;3.70;2.30;;;;;;;7.68;83.57;98122.19;217563;1260;140974;-71
2024/02/06 23:06:50;;;;;;;5.20;2.70;;;;;;;7.72;83.35;98114.10;217590;1256;140093;-72
2024/02/06 23:11:56;;;;;;;2.70;2.30;;;;;;;7.76;83.36;98115.52;217471;1258;140155;-72
2024/02/06 23:17:00;;;;;;;7.50;2.90;;;;;;;7.78;83.61;98110.23;217154;1258;139451;-72
2024/02/06 23:22:04;;;;;;;3.40;2.60;;;;;;;7.79;83.74;98109.69;217437;1257;140164;-71
2024/02/06 23:27:08;;;;;;;11.70;3.30;;;;;;;7.75;83.51;98113.64;217326;1260;139598;-72
2024/02/06 23:32:12;;;;;;;4.80;2.80;;;;;;;7.72;83.64;98111.23;217136;1260;139940;-72
2024/02/06 23:37:18;;;;;;;4.70;2.50;;;;;;;7.70;83.88;98106.13;217148;1262;139678;-69